createdAt,value
2018-07-20T17:03:47.827Z,2.5
2018-07-20T17:04:49.380Z,2.1
2018-07-20T17:05:50.784Z,2.2
2018-07-20T17:06:52.358Z,2.1
2018-07-20T17:07:53.783Z,2.2
2018-07-20T17:08:55.343Z,2.1
2018-07-20T17:09:56.931Z,2.1
2018-07-20T17:10:58.342Z,2
2018-07-20T17:11:59.912Z,2
2018-07-20T17:13:01.308Z,2
2018-07-20T17:14:02.880Z,2.1
2018-07-20T17:15:04.459Z,2.1
2018-07-20T17:16:06.039Z,2.1
2018-07-20T17:17:07.272Z,2.1
2018-07-20T17:18:08.848Z,2.1
2018-07-20T17:19:10.552Z,2.1
2018-07-20T17:20:12.125Z,2
2018-07-20T17:21:13.714Z,2.1
2018-07-20T17:22:15.274Z,2
2018-07-20T17:23:16.862Z,2.1
2018-07-20T17:24:18.267Z,2.1
2018-07-20T17:25:19.477Z,2
2018-07-20T17:26:21.046Z,2.1
2018-07-20T17:27:22.423Z,2.1
2018-07-20T17:28:23.982Z,2.1
2018-07-20T17:29:25.483Z,2.1
2018-07-20T17:30:26.889Z,2
2018-07-20T17:31:28.474Z,2
2018-07-20T17:32:30.102Z,2
2018-07-20T17:34:39.335Z,2.6
2018-07-20T17:35:40.567Z,2.1
2018-07-20T17:36:42.145Z,2.1
2018-07-20T17:37:43.695Z,2.2
2018-07-20T17:38:45.270Z,2.1
2018-07-20T17:39:46.832Z,2.1
2018-07-20T17:40:48.408Z,2
2018-07-20T17:41:49.795Z,2.1
2018-07-20T17:42:51.344Z,2.2
2018-07-20T17:43:52.889Z,2.1
2018-07-20T17:44:54.296Z,2.2
2018-07-20T17:45:56.270Z,2.2
2018-07-20T17:46:57.840Z,2.1
2018-07-20T17:47:59.411Z,2.2
2018-07-20T17:49:00.968Z,2.2
2018-07-20T17:50:02.360Z,2.2
2018-07-20T17:51:03.932Z,2.1
2018-07-20T17:52:05.527Z,2.2
2018-07-20T17:53:07.101Z,2.1
2018-07-20T17:54:08.670Z,2.2
2018-07-20T17:55:10.260Z,2.2
2018-07-20T17:56:11.678Z,2.2
2018-07-20T17:57:13.244Z,2.1
2018-07-20T17:58:14.654Z,2.2
2018-07-20T17:59:16.229Z,2.2
2018-07-20T18:11:22.735Z,2.9
2018-07-20T18:12:24.138Z,2.4
2018-07-20T18:13:25.517Z,2.4
2018-07-20T18:14:27.089Z,2.4
2018-07-20T18:15:28.305Z,2.4
2018-07-20T18:16:29.881Z,2.4
2018-07-20T18:17:31.451Z,2.4
2018-07-20T18:18:33.007Z,2.4
2018-07-20T18:19:34.576Z,2.4
2018-07-20T18:20:36.200Z,2.3
2018-07-20T18:21:37.745Z,2.4
2018-07-20T18:22:39.320Z,2.3
2018-07-20T18:23:40.718Z,2.4
2018-07-20T18:24:42.116Z,2.3
2018-07-20T18:25:43.355Z,2.3
2018-07-20T18:26:44.767Z,2.4
2018-07-20T18:27:46.366Z,2.4
2018-07-20T18:28:47.759Z,2.4
2018-07-20T18:29:49.321Z,2.3
2018-07-20T18:30:50.877Z,2.3
2018-07-20T18:31:52.454Z,2.3
2018-07-20T18:32:54.019Z,2.3
2018-07-20T18:33:56.547Z,2.3
2018-07-20T18:34:58.155Z,2.3
2018-07-20T18:35:59.725Z,2.3
2018-07-20T18:37:01.296Z,2.3
2018-07-20T18:38:02.692Z,2.3
2018-07-20T18:39:04.267Z,2.3
2018-07-20T18:40:05.839Z,2.3
2018-07-20T18:41:07.079Z,2.3
2018-07-20T18:42:08.968Z,2.3
2018-07-20T18:43:10.599Z,2.3
2018-07-20T18:44:11.998Z,2.3
2018-07-20T18:45:13.585Z,2.3
2018-07-20T18:46:15.168Z,2.3
2018-07-20T18:47:16.739Z,2.3
2018-07-20T18:48:18.303Z,2.3
2018-07-20T18:49:19.866Z,2.3
2018-07-20T18:50:21.289Z,2.3
2018-07-20T18:51:22.860Z,2.3
2018-07-20T18:52:24.419Z,2.3
2018-07-20T18:53:25.666Z,2.3
2018-07-20T18:54:27.073Z,2.3
2018-07-20T18:55:28.674Z,2.3
2018-07-20T18:56:30.229Z,2.3
2018-07-20T18:57:31.654Z,2.3
2018-07-20T18:58:32.884Z,2.4
2018-07-20T18:59:34.575Z,2.3
2018-07-20T19:00:36.145Z,2.3
2018-07-20T19:01:37.717Z,2.3
2018-07-20T19:02:39.147Z,2.3
2018-07-20T19:03:40.791Z,2.3
2018-07-20T19:04:42.208Z,2.3
2018-07-20T19:05:43.765Z,2.4
2018-07-20T19:06:45.349Z,2.3
2018-07-20T19:07:46.766Z,2.3
2018-07-20T19:08:48.347Z,2.3
2018-07-20T19:09:49.908Z,2.3
2018-07-20T19:10:51.303Z,2.3
2018-07-20T19:11:52.737Z,2.3
2018-07-20T19:12:54.288Z,2.3
2018-07-20T19:13:55.857Z,2.3
2018-07-20T19:14:57.414Z,2.3
2018-07-20T19:15:58.981Z,2.3
2018-07-20T19:17:00.212Z,2.3
2018-07-20T19:18:01.789Z,2.3
2018-07-20T19:19:03.366Z,2.3
2018-07-20T19:20:04.950Z,2.3
2018-07-20T19:21:06.016Z,2.3
2018-07-20T19:22:07.418Z,2.3
2018-07-20T19:23:08.817Z,2.3
2018-07-20T19:24:10.227Z,2.3
2018-07-20T19:25:11.815Z,2.3
2018-07-20T19:26:13.074Z,2.3
2018-07-20T19:27:14.484Z,2.3
2018-07-20T19:28:15.727Z,2.3
2018-07-20T19:29:17.125Z,2.3
2018-07-20T19:30:18.692Z,2.3
2018-07-20T19:31:20.069Z,2.3
2018-07-20T19:32:21.475Z,2.3
2018-07-20T19:33:22.894Z,2.3
2018-07-20T19:34:24.995Z,2.3
2018-07-20T19:35:26.546Z,2.3
2018-07-20T19:36:28.132Z,2.3
2018-07-20T19:37:29.715Z,2.3
2018-07-20T19:38:31.285Z,2.4
2018-07-20T19:39:32.827Z,2.4
2018-07-20T19:40:34.247Z,2.4
2018-07-20T19:41:35.833Z,2.4
2018-07-20T19:42:37.411Z,2.4
2018-07-20T19:43:38.831Z,2.3
2018-07-20T19:44:40.223Z,2.3
2018-07-20T19:45:41.629Z,2.3
2018-07-20T19:46:43.227Z,2.3
2018-07-20T19:47:44.649Z,2.3
2018-07-20T19:48:46.051Z,2.3
2018-07-20T19:49:48.016Z,2.3
2018-07-20T19:50:49.448Z,2.3
2018-07-20T19:51:51.010Z,2.3
2018-07-20T19:52:52.236Z,2.3
2018-07-20T19:53:53.637Z,2.3
2018-07-20T19:54:55.035Z,2.3
2018-07-20T19:55:56.423Z,2.3
2018-07-20T19:56:57.650Z,2.3
2018-07-20T19:57:59.186Z,2.3
2018-07-20T19:59:00.756Z,2.3
2018-07-20T20:00:02.187Z,2.3
2018-07-20T20:01:03.580Z,2.3
2018-07-20T20:02:05.138Z,2.3
2018-07-20T20:03:06.719Z,2.3
2018-07-20T20:04:08.116Z,2.3
2018-07-20T20:05:09.686Z,2.3
2018-07-20T20:06:11.090Z,2.3
2018-07-20T20:07:12.477Z,2.3
2018-07-20T20:08:13.867Z,2.3
2018-07-20T20:09:15.320Z,2.3
2018-07-20T20:10:16.717Z,2.3
2018-07-20T20:11:18.130Z,2.3
2018-07-20T20:12:19.686Z,2.3
2018-07-20T20:13:21.275Z,2.3
2018-07-20T20:14:22.832Z,2.3
2018-07-20T20:15:24.549Z,2.3
2018-07-20T20:16:25.947Z,2.3
2018-07-20T20:17:27.377Z,2.3
2018-07-20T20:18:28.794Z,2.3
2018-07-20T20:19:30.367Z,2.3
2018-07-20T20:20:31.799Z,2.3
2018-07-20T20:21:33.389Z,2.3
2018-07-20T20:22:34.664Z,2.3
2018-07-20T20:23:36.244Z,2.3
2018-07-20T20:24:37.475Z,2.3
2018-07-20T20:25:38.883Z,2.3
2018-07-20T20:26:40.287Z,2.3
2018-07-20T20:27:41.685Z,2.3
2018-07-20T20:28:43.253Z,2.3
2018-07-20T20:29:44.494Z,2.3
2018-07-20T20:30:45.896Z,2.3
2018-07-20T20:31:47.278Z,2.3
2018-07-20T20:32:48.836Z,2.3
2018-07-20T20:33:50.230Z,2.3
2018-07-20T20:34:51.636Z,2.3
2018-07-20T20:35:53.024Z,2.3
2018-07-20T20:36:54.600Z,2.3
2018-07-20T20:37:56.178Z,2.3
2018-07-20T20:38:57.736Z,2.3
2018-07-20T20:39:59.131Z,2.3
2018-07-20T20:41:00.530Z,2.3
2018-07-20T20:42:02.110Z,2.3
2018-07-20T20:43:03.665Z,2.4
2018-07-20T20:44:05.257Z,2.3
2018-07-20T20:45:06.822Z,2.3
2018-07-20T20:46:08.202Z,2.3
2018-07-20T20:47:09.602Z,2.3
2018-07-20T20:48:11.220Z,2.3
2018-07-20T20:49:12.487Z,2.3
2018-07-20T20:50:13.877Z,2.3
2018-07-20T20:51:15.426Z,2.3
2018-07-20T20:52:16.539Z,2.3
2018-07-20T20:53:18.059Z,2.3
2018-07-20T20:54:19.349Z,2.3
2018-07-20T20:55:20.736Z,2.3
2018-07-20T20:56:22.280Z,2.3
2018-07-20T20:57:23.848Z,2.3
2018-07-20T20:58:25.247Z,2.3
2018-07-20T20:59:26.860Z,2.3
2018-07-20T21:00:28.106Z,2.3
2018-07-20T21:01:29.495Z,2.3
2018-07-20T21:02:31.047Z,2.3
2018-07-20T21:03:32.596Z,2.3
2018-07-20T21:04:34.166Z,2.3
2018-07-20T21:05:35.598Z,2.3
2018-07-20T21:06:37.167Z,2.3
2018-07-20T21:07:38.574Z,2.3
2018-07-20T21:08:39.631Z,2.3
2018-07-20T21:09:41.185Z,2.3
2018-07-20T21:10:42.584Z,2.3
2018-07-20T21:11:44.767Z,2.3
2018-07-20T21:12:46.495Z,2.3
2018-07-20T21:13:48.077Z,2.3
2018-07-20T21:14:49.492Z,2.3
2018-07-20T21:15:51.065Z,2.3
2018-07-20T21:16:52.676Z,2.3
2018-07-20T21:17:54.237Z,2.3
2018-07-20T21:18:55.635Z,2.3
2018-07-20T21:19:57.179Z,2.3
2018-07-20T21:20:58.599Z,2.3
2018-07-20T21:22:00.151Z,2.4
2018-07-20T21:23:01.545Z,2.3
2018-07-20T21:24:03.113Z,2.4
2018-07-20T21:25:04.526Z,2.4
2018-07-20T21:26:05.928Z,2.3
2018-07-20T21:27:07.504Z,2.4
2018-07-20T21:28:08.927Z,2.4
2018-07-20T21:29:10.508Z,2.4
2018-07-20T21:30:11.887Z,2.4
2018-07-20T21:31:13.262Z,2.3
2018-07-20T21:32:14.669Z,2.4
2018-07-20T21:33:16.064Z,2.4
2018-07-20T21:34:17.300Z,2.4
2018-07-20T21:35:18.694Z,2.4
2018-07-20T21:36:20.097Z,2.3
2018-07-20T21:37:21.504Z,2.4
2018-07-20T21:38:22.716Z,2.4
2018-07-20T21:39:24.166Z,2.4
2018-07-20T21:40:25.566Z,2.4
2018-07-20T21:41:26.798Z,2.4
2018-07-20T21:42:28.173Z,2.4
2018-07-20T21:43:29.557Z,2.3
2018-07-20T21:44:31.006Z,2.4
2018-07-20T21:45:32.571Z,2.3
2018-07-20T21:46:33.945Z,2.3
2018-07-20T21:47:35.324Z,2.3
2018-07-20T21:48:36.676Z,2.4
2018-07-20T21:49:37.916Z,2.4
2018-07-20T21:50:39.312Z,2.4
2018-07-20T21:51:40.696Z,2.4
2018-07-20T21:52:42.090Z,2.4
2018-07-20T21:53:43.302Z,2.4
2018-07-20T21:54:44.676Z,2.4
2018-07-20T21:55:46.274Z,2.4
2018-07-20T21:56:47.517Z,2.4
2018-07-20T21:57:48.911Z,2.4
2018-07-20T21:58:50.298Z,2.3
2018-07-20T21:59:51.704Z,2.3
2018-07-20T22:00:53.420Z,2.4
2018-07-20T22:01:54.993Z,2.4
2018-07-20T22:02:56.395Z,2.4
2018-07-20T22:03:57.795Z,2.4
2018-07-20T22:04:59.195Z,2.3
2018-07-20T22:06:00.580Z,2.3
2018-07-20T22:07:01.973Z,2.4
2018-07-20T22:08:03.535Z,2.4
2018-07-20T22:09:04.930Z,2.4
2018-07-20T22:10:06.501Z,2.4
2018-07-20T22:11:07.748Z,2.4
2018-07-20T22:12:09.308Z,2.4
2018-07-20T22:13:10.864Z,2.4
2018-07-20T22:14:12.244Z,2.4
2018-07-20T22:15:13.635Z,2.3
2018-07-20T22:16:15.030Z,2.4
2018-07-20T22:17:16.422Z,2.3
2018-07-20T22:18:17.998Z,2.3
2018-07-20T22:19:19.574Z,2.4
2018-07-20T22:20:20.964Z,2.3
2018-07-20T22:21:22.356Z,2.4
2018-07-20T22:22:23.931Z,2.4
2018-07-20T22:23:25.683Z,2.3
2018-07-20T22:24:27.276Z,2.3
2018-07-20T22:25:28.670Z,2.3
2018-07-20T22:26:30.057Z,2.4
2018-07-20T22:27:31.290Z,2.3
2018-07-20T22:28:32.508Z,2.4
2018-07-20T22:29:34.045Z,2.4
2018-07-20T22:30:35.441Z,2.3
2018-07-20T22:31:37.025Z,2.3
2018-07-20T22:32:38.418Z,2.3
2018-07-20T22:33:39.805Z,2.4
2018-07-20T22:34:41.190Z,2.3
2018-07-20T22:35:42.743Z,2.4
2018-07-20T22:36:44.134Z,2.4
2018-07-20T22:37:45.524Z,2.4
2018-07-20T22:38:47.086Z,2.4
2018-07-20T22:39:48.473Z,2.4
2018-07-20T22:40:50.035Z,2.4
2018-07-20T22:41:51.602Z,2.4
2018-07-20T22:42:53.010Z,2.4
2018-07-20T22:43:54.394Z,2.4
2018-07-20T22:44:55.815Z,2.4
2018-07-20T22:45:57.366Z,2.4
2018-07-20T22:46:58.919Z,2.3
2018-07-20T22:48:00.347Z,2.3
2018-07-20T22:49:01.575Z,2.4
2018-07-20T22:50:02.977Z,2.3
2018-07-20T22:51:04.369Z,2.4
2018-07-20T22:52:05.767Z,2.3
2018-07-20T22:53:06.994Z,2.4
2018-07-20T22:54:08.544Z,2.3
2018-07-20T22:55:09.911Z,2.3
2018-07-20T22:56:11.458Z,2.4
2018-07-20T22:57:13.002Z,2.3
2018-07-20T22:58:14.554Z,2.4
2018-07-20T22:59:15.940Z,2.3
2018-07-20T23:00:17.477Z,2.4
2018-07-20T23:01:19.019Z,2.4
2018-07-20T23:02:20.089Z,2.4
2018-07-20T23:03:21.467Z,2.4
2018-07-20T23:04:22.853Z,2.4
2018-07-20T23:05:24.377Z,2.3
2018-07-20T23:06:25.916Z,2.3
2018-07-20T23:07:27.138Z,2.4
2018-07-20T23:08:28.674Z,2.4
2018-07-20T23:09:29.909Z,2.4
2018-07-20T23:10:31.297Z,2.3
2018-07-20T23:11:32.836Z,2.4
2018-07-20T23:12:34.059Z,2.4
2018-07-20T23:13:35.606Z,2.4
2018-07-20T23:14:36.989Z,2.4
2018-07-20T23:15:38.528Z,2.3
2018-07-20T23:16:39.928Z,2.3
2018-07-20T23:17:41.489Z,2.4
2018-07-20T23:18:43.037Z,2.3
2018-07-20T23:19:44.250Z,2.3
2018-07-20T23:20:46.216Z,2.3
2018-07-20T23:21:47.834Z,2.4
2018-07-20T23:22:49.403Z,2.3
2018-07-20T23:23:50.955Z,2.3
2018-07-20T23:24:52.517Z,2.3
2018-07-20T23:25:54.060Z,2.3
2018-07-20T23:26:55.434Z,2.3
2018-07-20T23:27:56.977Z,2.3
2018-07-20T23:28:58.397Z,2.3
2018-07-20T23:29:59.944Z,2.3
2018-07-20T23:31:01.317Z,2.3
2018-07-20T23:32:02.871Z,2.3
2018-07-20T23:33:04.441Z,2.4
2018-07-20T23:34:05.834Z,2.3
2018-07-20T23:35:07.436Z,2.4
2018-07-20T23:36:08.883Z,2.3
2018-07-20T23:37:10.263Z,2.3
2018-07-20T23:38:11.803Z,2.4
2018-07-20T23:39:13.195Z,2.3
2018-07-20T23:40:14.427Z,2.3
2018-07-20T23:41:15.818Z,2.3
2018-07-20T23:42:17.367Z,2.3
2018-07-20T23:43:18.761Z,2.3
2018-07-20T23:44:19.972Z,2.4
2018-07-20T23:45:21.397Z,2.4
2018-07-20T23:46:22.941Z,2.3
2018-07-20T23:47:24.325Z,2.3
2018-07-20T23:48:25.864Z,2.3
2018-07-20T23:49:27.439Z,2.4
2018-07-20T23:50:28.980Z,2.3
2018-07-20T23:51:30.532Z,2.3
2018-07-20T23:52:32.076Z,2.4
2018-07-20T23:53:33.617Z,2.4
2018-07-20T23:54:35.173Z,2.4
2018-07-20T23:55:36.736Z,2.4
2018-07-20T23:56:38.108Z,2.4
2018-07-20T23:57:39.664Z,2.3
2018-07-20T23:58:41.216Z,2.3
2018-07-20T23:59:43.032Z,2.4
